Time;durP1;ratioP1;P1;durP2;ratioP2;P2;SDS_P1;SDS_P2;PMS_P1;PMS_P2;Temp;Humidity;BMP_temperature;BMP_pressure;BME280_temperature;BME280_humidity;BME280_pressure;Samples;Min_cycle;Max_cycle;Signal;HPM_P1;HPM_P2
2021/12/02 00:00:55;;;;;;;1.50;1.40;;;5.10;99.90;;;;;;4958577;28;20266;-80
2021/12/02 00:03:21;;;;;;;4.10;1.50;;;5.10;99.90;;;;;;4974577;28;20316;-80
2021/12/02 00:05:46;;;;;;;5.17;1.87;;;5.10;99.90;;;;;;4958175;28;20205;-79
2021/12/02 00:08:12;;;;;;;1.43;1.40;;;5.10;99.90;;;;;;4958470;28;20292;-80
2021/12/02 00:10:40;;;;;;;2.33;1.70;;;5.00;99.90;;;;;;4958826;28;20279;-80
2021/12/02 00:13:06;;;;;;;3.43;1.57;;;5.00;99.90;;;;;;4958346;28;20183;-80
2021/12/02 00:15:36;;;;;;;1.97;1.67;;;5.10;99.90;;;;;;4958278;28;20295;-80
2021/12/02 00:18:29;;;;;;;1.80;1.60;;;5.10;99.90;;;;;;4975319;28;20181;-79
2021/12/02 00:21:07;;;;;;;3.00;1.40;;;5.20;99.90;;;;;;4975091;28;20603;-80
2021/12/02 00:24:04;;;;;;;2.67;1.60;;;5.20;99.90;;;;;;4975196;28;20587;-80
2021/12/02 00:26:33;;;;;;;2.83;1.47;;;5.20;99.90;;;;;;4958228;28;20204;-80
2021/12/02 00:29:01;;;;;;;2.60;1.63;;;5.30;99.90;;;;;;4975112;28;20181;-80
2021/12/02 00:31:30;;;;;;;3.97;1.70;;;5.30;99.90;;;;;;4958101;28;20240;-80
2021/12/02 00:34:01;;;;;;;5.30;1.30;;;5.30;99.90;;;;;;4957933;28;20256;-79
2021/12/02 00:36:29;;;;;;;3.10;1.60;;;5.30;99.90;;;;;;4958209;28;20208;-78
2021/12/02 00:38:56;;;;;;;1.60;1.50;;;5.30;99.90;;;;;;4958470;28;20183;-78
2021/12/02 00:41:24;;;;;;;2.00;1.40;;;5.40;99.90;;;;;;4957964;28;20309;-79
2021/12/02 00:43:52;;;;;;;2.43;1.57;;;5.40;99.90;;;;;;4957748;28;20181;-79
2021/12/02 00:46:20;;;;;;;1.50;1.40;;;5.30;99.90;;;;;;4973498;28;20228;-79
2021/12/02 00:48:47;;;;;;;3.33;1.50;;;5.40;99.90;;;;;;4974950;28;20180;-80
2021/12/02 00:51:14;;;;;;;2.07;1.67;;;5.40;99.90;;;;;;4958173;28;20208;-79
2021/12/02 00:53:44;;;;;;;3.87;1.50;;;5.40;99.90;;;;;;4957636;28;20180;-80
2021/12/02 00:56:14;;;;;;;2.40;1.60;;;5.40;99.90;;;;;;4958504;28;20204;-79
2021/12/02 00:58:43;;;;;;;2.37;1.47;;;5.50;99.90;;;;;;4958681;28;20223;-78
2021/12/02 01:01:10;;;;;;;3.23;1.60;;;5.50;99.90;;;;;;4975164;28;20177;-79
2021/12/02 01:03:37;;;;;;;5.20;1.57;;;5.50;99.90;;;;;;4974029;28;20197;-79
2021/12/02 01:06:05;;;;;;;3.40;1.40;;;5.50;99.90;;;;;;4958586;28;20205;-78
2021/12/02 01:08:36;;;;;;;3.70;1.40;;;5.50;99.90;;;;;;4975428;28;20180;-78
2021/12/02 01:11:03;;;;;;;2.70;1.43;;;5.50;99.90;;;;;;4975037;28;20196;-78
2021/12/02 01:13:28;;;;;;;2.63;1.40;;;5.50;99.90;;;;;;4973647;28;20188;-79
2021/12/02 01:15:54;;;;;;;5.27;1.60;;;5.50;99.90;;;;;;4957404;28;20213;-79
2021/12/02 01:18:20;;;;;;;5.07;1.43;;;5.50;99.90;;;;;;4958172;28;20177;-78
2021/12/02 01:20:49;;;;;;;2.83;1.73;;;5.50;99.90;;;;;;4957744;28;20181;-78
2021/12/02 01:23:17;;;;;;;3.47;1.77;;;5.60;99.90;;;;;;4957984;28;20185;-78
2021/12/02 01:25:47;;;;;;;3.10;1.50;;;5.60;99.90;;;;;;4974114;28;20204;-79
2021/12/02 01:28:13;;;;;;;1.77;1.30;;;5.60;99.90;;;;;;4958779;28;20240;-79
2021/12/02 01:30:40;;;;;;;2.00;1.60;;;5.70;99.90;;;;;;4958527;28;20217;-79
2021/12/02 01:33:07;;;;;;;2.80;1.60;;;5.70;99.90;;;;;;4975292;28;20182;-78
2021/12/02 01:35:35;;;;;;;2.33;1.60;;;5.70;99.90;;;;;;4958266;28;20240;-78
2021/12/02 01:38:00;;;;;;;2.40;1.50;;;5.60;99.90;;;;;;4958199;28;20248;-78
2021/12/02 01:40:27;;;;;;;5.63;1.90;;;5.60;99.90;;;;;;4957803;28;20208;-78
2021/12/02 01:42:58;;;;;;;2.30;1.57;;;5.50;99.90;;;;;;4975066;28;20177;-78
2021/12/02 01:45:29;;;;;;;1.60;1.50;;;5.50;99.90;;;;;;4957412;28;20211;-78
2021/12/02 01:47:56;;;;;;;7.77;1.83;;;5.40;99.90;;;;;;4973229;28;20185;-79
2021/12/02 01:50:24;;;;;;;2.80;1.67;;;5.40;99.90;;;;;;4974249;28;20197;-80
2021/12/02 01:52:58;;;;;;;5.10;1.70;;;5.40;99.90;;;;;;4957809;28;20308;-80
2021/12/02 01:55:25;;;;;;;3.77;1.83;;;5.40;99.90;;;;;;4956995;28;20197;-80
2021/12/02 01:58:02;;;;;;;3.07;1.67;;;5.40;99.90;;;;;;4956743;28;20228;-80
2021/12/02 02:00:33;;;;;;;3.40;1.80;;;5.40;99.90;;;;;;4956933;28;20187;-80
2021/12/02 02:03:01;;;;;;;3.57;1.80;;;5.40;99.90;;;;;;4957264;28;20211;-80
2021/12/02 02:05:27;;;;;;;4.47;1.70;;;5.40;99.90;;;;;;4956936;28;20209;-80
2021/12/02 02:08:21;;;;;;;8.17;1.87;;;5.30;99.90;;;;;;4961228;28;20181;-80
2021/12/02 02:10:47;;;;;;;4.17;2.23;;;5.40;99.90;;;;;;4961005;28;20236;-80
2021/12/02 02:13:13;;;;;;;4.93;1.90;;;5.30;99.90;;;;;;4960510;28;20200;-80
2021/12/02 02:15:43;;;;;;;4.90;2.20;;;5.30;99.90;;;;;;4960114;28;20279;-80
2021/12/02 02:18:18;;;;;;;4.00;1.90;;;5.30;99.90;;;;;;4960010;28;20204;-80
2021/12/02 02:20:59;;;;;;;2.70;1.60;;;5.30;99.90;;;;;;4977596;28;20249;-80
2021/12/02 02:23:26;;;;;;;2.37;1.80;;;5.20;99.90;;;;;;4960917;28;20187;-80
2021/12/02 02:25:53;;;;;;;2.43;1.90;;;5.20;99.90;;;;;;4960021;28;20200;-80
2021/12/02 02:28:19;;;;;;;2.13;1.53;;;5.30;99.90;;;;;;4960881;28;20207;-80
2021/12/02 02:30:45;;;;;;;2.53;1.67;;;5.40;99.90;;;;;;4960227;28;20676;-80
2021/12/02 02:33:12;;;;;;;3.80;1.50;;;5.40;99.90;;;;;;4977160;28;20169;-80
2021/12/02 02:35:38;;;;;;;5.00;1.80;;;5.30;99.90;;;;;;4960736;28;20279;-80
2021/12/02 02:38:04;;;;;;;4.10;1.60;;;5.30;99.90;;;;;;4959830;28;20204;-80
2021/12/02 02:40:31;;;;;;;1.83;1.70;;;5.30;99.90;;;;;;4959826;28;20194;-80
2021/12/02 02:43:06;;;;;;;1.40;1.27;;;5.30;99.90;;;;;;4977083;28;20179;-80
2021/12/02 02:45:32;;;;;;;3.63;1.50;;;5.30;99.90;;;;;;4959563;28;20616;-80
2021/12/02 02:47:57;;;;;;;2.83;1.43;;;5.30;99.90;;;;;;4976022;28;20181;-80
2021/12/02 02:50:23;;;;;;;2.27;1.40;;;5.30;99.90;;;;;;4975699;28;20304;-80
2021/12/02 02:52:54;;;;;;;2.27;1.40;;;5.20;99.90;;;;;;4959861;28;20176;-79
2021/12/02 02:55:24;;;;;;;1.50;1.40;;;5.10;99.90;;;;;;4960090;28;20204;-79
2021/12/02 02:58:09;;;;;;;4.00;1.60;;;5.00;99.90;;;;;;4960887;28;20165;-79
2021/12/02 03:00:46;;;;;;;2.80;1.77;;;5.00;99.90;;;;;;4960362;28;20659;-79
2021/12/02 03:04:02;;;;;;;2.10;1.80;;;5.00;99.90;;;;;;4960320;28;20196;-78
2021/12/02 03:08:53;;;;;;;2.07;1.60;;;4.90;99.90;;;;;;4977585;28;20216;-78
2021/12/02 03:11:21;;;;;;;2.47;1.57;;;4.90;99.90;;;;;;4959674;28;20216;-78
2021/12/02 03:13:51;;;;;;;4.53;1.60;;;4.90;99.90;;;;;;4959849;28;20221;-78
2021/12/02 03:16:44;;;;;;;3.00;1.90;;;4.90;99.90;;;;;;4959832;28;20293;-78
2021/12/02 03:19:29;;;;;;;3.43;1.80;;;4.80;99.90;;;;;;4975868;28;20244;-78
2021/12/02 03:21:57;;;;;;;3.23;1.73;;;4.80;99.90;;;;;;4959626;28;20177;-78
2021/12/02 03:24:23;;;;;;;1.90;1.40;;;4.80;99.90;;;;;;4976901;28;20265;-78
2021/12/02 03:26:49;;;;;;;4.30;1.60;;;4.80;99.90;;;;;;4959866;28;20201;-78
2021/12/02 03:29:15;;;;;;;5.03;1.90;;;4.80;99.90;;;;;;4959347;28;20192;-78
2021/12/02 03:31:41;;;;;;;3.37;1.73;;;4.80;99.90;;;;;;4958995;28;20247;-80
2021/12/02 03:34:07;;;;;;;4.47;1.87;;;4.80;99.90;;;;;;4959145;28;20207;-80
2021/12/02 03:36:34;;;;;;;4.80;1.80;;;4.80;99.90;;;;;;4959383;28;20351;-80
2021/12/02 03:39:03;;;;;;;3.03;1.47;;;4.80;99.90;;;;;;4975122;28;20223;-80
2021/12/02 03:41:29;;;;;;;2.70;1.67;;;4.80;99.90;;;;;;4958829;28;20184;-79
2021/12/02 03:43:55;;;;;;;4.00;1.70;;;4.80;99.90;;;;;;4959225;28;20181;-79
2021/12/02 03:46:23;;;;;;;3.23;1.60;;;4.80;99.90;;;;;;4976303;28;20545;-79
2021/12/02 03:48:51;;;;;;;2.70;1.83;;;4.80;99.90;;;;;;4959742;28;20180;-79
2021/12/02 03:51:17;;;;;;;4.37;1.90;;;4.80;99.90;;;;;;4975158;28;20204;-79
2021/12/02 03:53:44;;;;;;;4.43;1.80;;;4.80;99.90;;;;;;4958510;28;20208;-80
2021/12/02 03:56:10;;;;;;;4.50;1.80;;;4.80;99.90;;;;;;4958290;28;20288;-80
2021/12/02 03:58:37;;;;;;;3.63;1.67;;;4.80;99.90;;;;;;4975752;28;20227;-80
2021/12/02 04:01:04;;;;;;;3.53;1.80;;;4.70;99.90;;;;;;4958344;28;20189;-80
2021/12/02 04:03:29;;;;;;;5.30;1.70;;;4.70;99.90;;;;;;4974159;28;20196;-80
2021/12/02 04:05:55;;;;;;;5.77;2.33;;;4.70;99.90;;;;;;4975702;28;20571;-80
2021/12/02 04:08:27;;;;;;;4.50;2.03;;;4.70;99.90;;;;;;4958594;28;20181;-79
2021/12/02 04:10:59;;;;;;;5.33;1.83;;;4.70;99.90;;;;;;4974341;28;20204;-80
2021/12/02 04:13:29;;;;;;;4.80;2.23;;;4.70;99.90;;;;;;4958126;28;20170;-80
2021/12/02 04:16:00;;;;;;;2.57;2.00;;;4.60;99.90;;;;;;4958087;28;20259;-80
2021/12/02 04:18:26;;;;;;;5.73;2.17;;;4.60;99.90;;;;;;4959053;28;20184;-80
2021/12/02 04:20:51;;;;;;;3.97;1.83;;;4.50;99.90;;;;;;4960348;28;20254;-80
2021/12/02 04:23:17;;;;;;;4.53;2.03;;;4.50;99.90;;;;;;4963257;28;20177;-80
2021/12/02 04:25:43;;;;;;;3.70;2.10;;;4.40;99.90;;;;;;4965063;28;20204;-80
2021/12/02 04:28:08;;;;;;;4.40;1.90;;;4.40;99.90;;;;;;4981661;28;20240;-80
2021/12/02 04:30:34;;;;;;;3.27;1.60;;;4.40;99.90;;;;;;4965194;28;20228;-80
2021/12/02 04:33:00;;;;;;;24.33;16.73;;;4.40;99.90;;;;;;4963236;28;20181;-80
2021/12/02 04:35:26;;;;;;;21.50;14.30;;;4.40;99.90;;;;;;4962084;28;20204;-80
2021/12/02 04:37:52;;;;;;;17.27;11.37;;;4.40;99.90;;;;;;4967685;28;20176;-79
2021/12/02 04:40:20;;;;;;;16.53;11.23;;;4.30;99.90;;;;;;4967392;28;20640;-79
2021/12/02 04:42:47;;;;;;;6.53;4.83;;;4.30;99.90;;;;;;4967327;28;20177;-79
2021/12/02 04:45:13;;;;;;;28.23;17.73;;;4.20;99.90;;;;;;4966349;28;20264;-79
2021/12/02 04:47:39;;;;;;;22.13;13.23;;;4.30;99.90;;;;;;4966974;28;20245;-79
2021/12/02 04:50:07;;;;;;;51.67;31.33;;;4.30;99.90;;;;;;4984052;28;20174;-79
2021/12/02 04:52:34;;;;;;;147.70;83.07;;;4.30;99.90;;;;;;4964144;28;20188;-80
2021/12/02 04:54:59;;;;;;;94.93;54.87;;;4.30;99.90;;;;;;4961156;28;20283;-80
2021/12/02 04:57:25;;;;;;;36.47;21.47;;;4.40;99.90;;;;;;4961449;28;20680;-80
2021/12/02 04:59:50;;;;;;;16.77;10.33;;;4.40;99.90;;;;;;4961025;28;20176;-80
2021/12/02 05:02:16;;;;;;;15.67;9.10;;;4.40;99.90;;;;;;4961203;28;20659;-80
2021/12/02 05:04:42;;;;;;;7.77;5.00;;;4.40;99.90;;;;;;4960552;28;20195;-80
2021/12/02 05:07:07;;;;;;;6.43;3.70;;;4.50;99.90;;;;;;4960464;28;20240;-81
2021/12/02 05:09:33;;;;;;;6.67;4.63;;;4.50;99.90;;;;;;4959920;28;20181;-80
2021/12/02 05:11:58;;;;;;;8.80;5.53;;;4.50;99.90;;;;;;4961302;28;20291;-80
2021/12/02 05:14:24;;;;;;;8.27;4.93;;;4.50;99.90;;;;;;4976103;28;20208;-80
2021/12/02 05:16:50;;;;;;;7.00;4.17;;;4.60;99.90;;;;;;4977147;28;20219;-80
2021/12/02 05:19:15;;;;;;;10.50;4.40;;;4.60;99.90;;;;;;4960027;28;20244;-80
2021/12/02 05:21:41;;;;;;;5.73;3.90;;;4.60;99.90;;;;;;4961226;28;20188;-80
2021/12/02 05:24:07;;;;;;;8.90;5.67;;;4.70;99.90;;;;;;4963078;28;20221;-79
2021/12/02 05:26:33;;;;;;;11.37;7.00;;;4.70;99.90;;;;;;4964161;28;20586;-79
2021/12/02 05:28:58;;;;;;;8.30;6.30;;;4.70;99.90;;;;;;4964610;28;20189;-79
2021/12/02 05:31:25;;;;;;;7.40;4.90;;;4.70;99.90;;;;;;4965136;28;20216;-79
2021/12/02 05:33:51;;;;;;;7.43;3.93;;;4.70;99.90;;;;;;4965710;28;20623;-79
2021/12/02 05:36:17;;;;;;;9.87;3.17;;;4.70;99.90;;;;;;4960345;28;20200;-81
2021/12/02 05:38:42;;;;;;;5.30;3.43;;;4.70;99.90;;;;;;4978932;28;20189;-79
2021/12/02 05:41:08;;;;;;;6.50;2.93;;;4.70;99.90;;;;;;4967342;28;20177;-79
2021/12/02 05:43:34;;;;;;;7.13;3.33;;;4.70;99.90;;;;;;4966842;28;20547;-79
2021/12/02 05:46:00;;;;;;;3.03;2.20;;;4.70;99.90;;;;;;4965030;28;20208;-82
2021/12/02 05:48:25;;;;;;;4.20;2.20;;;4.70;99.90;;;;;;4965076;28;20675;-78
2021/12/02 05:50:51;;;;;;;4.67;2.27;;;4.70;99.90;;;;;;4982419;28;20209;-79
2021/12/02 05:53:17;;;;;;;5.87;2.83;;;4.60;99.90;;;;;;4964958;28;20177;-79
2021/12/02 05:55:43;;;;;;;6.80;2.50;;;4.60;99.90;;;;;;4966058;28;20712;-79
2021/12/02 05:58:13;;;;;;;5.87;2.70;;;4.60;99.90;;;;;;4965887;28;20180;-79
2021/12/02 06:00:40;;;;;;;3.10;2.13;;;4.70;99.90;;;;;;4966547;28;20173;-80
2021/12/02 06:03:05;;;;;;;6.03;2.40;;;4.70;99.90;;;;;;4964807;28;20207;-80
2021/12/02 06:05:31;;;;;;;6.67;2.20;;;4.70;99.90;;;;;;4964118;28;20201;-80
2021/12/02 06:08:01;;;;;;;5.03;2.30;;;4.70;99.90;;;;;;4981656;28;20180;-80
2021/12/02 06:10:27;;;;;;;4.77;2.30;;;4.60;99.90;;;;;;4963556;28;20211;-80
2021/12/02 06:12:53;;;;;;;4.43;2.53;;;4.60;99.90;;;;;;4964484;28;20216;-80
2021/12/02 06:15:19;;;;;;;6.97;2.23;;;4.50;99.90;;;;;;4963606;28;20251;-80
2021/12/02 06:17:46;;;;;;;4.37;2.00;;;4.50;99.90;;;;;;4963976;28;20177;-81
2021/12/02 06:20:13;;;;;;;8.97;2.40;;;4.50;99.90;;;;;;4964112;28;20180;-79
2021/12/02 06:22:40;;;;;;;6.83;2.40;;;4.50;99.90;;;;;;4962457;28;20187;-78
2021/12/02 06:27:42;;;;;;;8.67;2.63;;;4.60;99.90;;;;;;4980118;28;20172;-78
2021/12/02 06:30:08;;;;;;;6.60;2.40;;;4.60;99.90;;;;;;4962245;28;20240;-78
2021/12/02 06:32:34;;;;;;;4.57;2.70;;;4.60;99.90;;;;;;4977649;28;20184;-78
2021/12/02 06:35:00;;;;;;;4.73;2.17;;;4.60;99.90;;;;;;4961581;28;20201;-78
2021/12/02 06:37:26;;;;;;;5.47;2.43;;;4.60;99.90;;;;;;4961469;28;20184;-78
2021/12/02 06:39:51;;;;;;;8.57;2.27;;;4.60;99.90;;;;;;4961324;28;20177;-78
2021/12/02 06:42:17;;;;;;;6.43;2.17;;;4.70;99.90;;;;;;4978464;28;20176;-78
2021/12/02 06:44:43;;;;;;;4.63;1.83;;;4.70;99.90;;;;;;4961167;28;20180;-79
2021/12/02 06:47:09;;;;;;;5.50;2.47;;;4.60;99.90;;;;;;4961113;28;20663;-78
2021/12/02 06:49:35;;;;;;;7.50;5.90;;;4.60;99.90;;;;;;4978840;28;20246;-78
2021/12/02 06:52:02;;;;;;;8.20;5.70;;;4.60;99.90;;;;;;4960655;28;20201;-80
2021/12/02 06:54:27;;;;;;;6.13;3.97;;;4.60;99.90;;;;;;4977668;28;20229;-80
2021/12/02 06:56:53;;;;;;;6.83;3.43;;;4.60;99.90;;;;;;4960870;28;20263;-78
2021/12/02 06:59:19;;;;;;;9.30;2.87;;;4.60;99.90;;;;;;4962289;28;20655;-78
2021/12/02 07:01:46;;;;;;;8.13;2.57;;;4.50;99.90;;;;;;4960178;28;20181;-78
2021/12/02 07:04:12;;;;;;;3.10;2.17;;;4.50;99.90;;;;;;4959541;28;20199;-78
2021/12/02 07:06:39;;;;;;;6.47;2.70;;;4.50;99.90;;;;;;4959071;28;20252;-78
2021/12/02 07:09:06;;;;;;;5.80;2.93;;;4.50;99.90;;;;;;4976505;28;20173;-79
2021/12/02 07:11:32;;;;;;;7.03;5.07;;;4.50;99.90;;;;;;4959057;28;20231;-79
2021/12/02 07:14:05;;;;;;;11.67;7.07;;;4.50;99.90;;;;;;4959408;28;20667;-78
2021/12/02 07:16:32;;;;;;;8.60;4.07;;;4.40;99.90;;;;;;4959303;28;20193;-78
2021/12/02 07:18:59;;;;;;;10.93;8.10;;;4.50;99.90;;;;;;4958864;28;20184;-78
2021/12/02 07:21:25;;;;;;;12.13;7.10;;;4.50;99.90;;;;;;4959086;28;20659;-78
2021/12/02 07:23:51;;;;;;;14.70;11.33;;;4.50;99.90;;;;;;4959493;28;20181;-78
2021/12/02 07:26:17;;;;;;;9.73;7.30;;;4.50;99.90;;;;;;4975431;28;20213;-78
2021/12/02 07:28:47;;;;;;;13.23;8.77;;;4.50;99.90;;;;;;4958692;28;20567;-78
2021/12/02 07:31:13;;;;;;;15.53;10.20;;;4.50;99.90;;;;;;4958781;28;20213;-78
2021/12/02 07:33:42;;;;;;;8.43;6.50;;;4.50;99.90;;;;;;4974747;28;20185;-78
2021/12/02 07:36:08;;;;;;;4.43;3.30;;;4.50;99.90;;;;;;4959001;28;20197;-76
2021/12/02 07:38:37;;;;;;;9.60;3.47;;;4.50;99.90;;;;;;4958873;28;20181;-78
2021/12/02 07:41:04;;;;;;;4.30;2.90;;;4.50;99.90;;;;;;4958484;28;20191;-78
2021/12/02 07:43:32;;;;;;;4.53;2.67;;;4.60;99.90;;;;;;4958629;28;20216;-78
2021/12/02 07:45:59;;;;;;;9.10;3.60;;;4.60;99.90;;;;;;4958552;28;20216;-78
2021/12/02 07:48:26;;;;;;;4.50;2.90;;;4.70;99.90;;;;;;4958236;28;20221;-78
2021/12/02 07:50:54;;;;;;;5.23;2.70;;;4.60;99.90;;;;;;4958003;28;20209;-78
2021/12/02 07:53:20;;;;;;;6.93;3.10;;;4.60;99.90;;;;;;4959129;28;20177;-78
2021/12/02 07:55:47;;;;;;;8.20;3.50;;;4.60;99.90;;;;;;4958617;28;20204;-78
2021/12/02 07:58:13;;;;;;;6.27;2.70;;;4.70;99.90;;;;;;4958119;28;20188;-78
2021/12/02 08:00:39;;;;;;;6.63;3.13;;;4.80;99.90;;;;;;4958488;28;20172;-78
2021/12/02 08:03:08;;;;;;;6.93;2.80;;;4.80;99.90;;;;;;4958076;28;20204;-78
2021/12/02 08:05:34;;;;;;;8.87;3.70;;;4.80;99.90;;;;;;4958570;28;20344;-78
2021/12/02 08:07:59;;;;;;;7.27;3.13;;;4.80;99.90;;;;;;4958679;28;20205;-78
2021/12/02 08:10:25;;;;;;;11.90;4.53;;;4.90;99.90;;;;;;4975545;28;20181;-79
2021/12/02 08:12:51;;;;;;;5.73;3.33;;;4.90;99.90;;;;;;4959666;28;20204;-78
2021/12/02 08:15:22;;;;;;;5.90;2.90;;;5.00;99.90;;;;;;4959463;28;20197;-78
2021/12/02 08:17:48;;;;;;;3.20;2.40;;;5.00;99.90;;;;;;4959575;28;20181;-78
2021/12/02 08:20:15;;;;;;;5.50;2.50;;;5.00;99.90;;;;;;4977259;28;20173;-78
2021/12/02 08:22:41;;;;;;;4.07;2.00;;;5.10;99.90;;;;;;4959467;28;20187;-78
2021/12/02 08:25:07;;;;;;;6.33;2.30;;;5.10;99.90;;;;;;4958525;28;20687;-78
2021/12/02 08:27:33;;;;;;;4.67;2.27;;;5.10;99.90;;;;;;4974770;28;20177;-78
2021/12/02 08:30:01;;;;;;;3.37;2.10;;;5.20;99.90;;;;;;4958052;28;20173;-78
2021/12/02 08:32:28;;;;;;;5.10;2.40;;;5.20;99.90;;;;;;4957982;28;20249;-78
2021/12/02 08:34:54;;;;;;;3.60;1.50;;;5.10;99.90;;;;;;4957537;28;20239;-78
2021/12/02 08:37:21;;;;;;;5.03;1.80;;;5.10;99.90;;;;;;4957652;28;20194;-78
2021/12/02 08:39:47;;;;;;;1.93;1.53;;;5.10;99.90;;;;;;4974959;28;20220;-78
2021/12/02 08:42:13;;;;;;;6.00;2.30;;;5.10;99.90;;;;;;4974856;28;20186;-78
2021/12/02 08:44:41;;;;;;;5.10;3.83;;;5.10;99.90;;;;;;4974425;28;20209;-78
2021/12/02 08:47:08;;;;;;;4.03;1.97;;;5.20;99.90;;;;;;4957967;28;20184;-78
2021/12/02 08:49:34;;;;;;;2.10;1.90;;;5.20;99.90;;;;;;4957388;28;20184;-78
2021/12/02 08:52:00;;;;;;;4.37;2.27;;;5.10;99.90;;;;;;4972965;28;20205;-78
2021/12/02 08:54:25;;;;;;;2.13;1.67;;;5.10;99.90;;;;;;4958429;28;20233;-78
2021/12/02 08:56:51;;;;;;;2.93;1.80;;;5.10;99.90;;;;;;4958110;28;20216;-78
2021/12/02 08:59:17;;;;;;;4.33;1.90;;;5.10;99.90;;;;;;4958027;28;20264;-78
2021/12/02 09:01:43;;;;;;;4.43;2.53;;;5.20;99.90;;;;;;4958001;28;20247;-78
2021/12/02 09:04:09;;;;;;;4.33;3.10;;;5.20;99.90;;;;;;4957641;28;20238;-78
2021/12/02 09:06:34;;;;;;;2.77;2.20;;;5.10;99.90;;;;;;4957670;28;20196;-78
2021/12/02 09:09:00;;;;;;;2.47;2.20;;;5.00;99.90;;;;;;4957930;28;20195;-78
2021/12/02 09:11:28;;;;;;;7.93;5.80;;;5.00;99.90;;;;;;4958639;28;20211;-78
2021/12/02 09:13:57;;;;;;;2.60;2.20;;;5.00;99.90;;;;;;4957942;28;20187;-78
2021/12/02 09:16:24;;;;;;;3.13;1.70;;;5.00;99.90;;;;;;4961320;28;20219;-78
2021/12/02 09:18:50;;;;;;;2.73;1.53;;;5.00;99.90;;;;;;4961814;28;20670;-78
2021/12/02 09:21:15;;;;;;;2.07;1.40;;;5.00;99.90;;;;;;4961473;28;20232;-78
2021/12/02 09:23:41;;;;;;;3.03;1.47;;;5.10;99.90;;;;;;4961461;28;20185;-78
2021/12/02 09:26:07;;;;;;;1.50;1.40;;;5.00;99.90;;;;;;4961364;28;20256;-78
2021/12/02 09:28:32;;;;;;;4.10;2.83;;;5.10;99.90;;;;;;4961472;28;20195;-78
2021/12/02 09:30:58;;;;;;;4.27;2.70;;;5.20;99.90;;;;;;4961604;28;20234;-78
2021/12/02 09:33:24;;;;;;;3.13;2.83;;;5.20;99.90;;;;;;4961304;28;20232;-78
2021/12/02 09:35:49;;;;;;;2.90;1.80;;;5.20;99.90;;;;;;4960773;28;20208;-78
2021/12/02 09:38:15;;;;;;;3.40;1.90;;;5.20;99.90;;;;;;4960818;28;20180;-78
2021/12/02 09:40:42;;;;;;;2.80;1.90;;;5.30;99.90;;;;;;4961009;28;20528;-78
2021/12/02 09:43:10;;;;;;;17.63;12.60;;;5.40;99.90;;;;;;4961341;28;20188;-78
2021/12/02 09:45:37;;;;;;;3.40;2.60;;;5.40;99.90;;;;;;4960450;28;20196;-78
2021/12/02 09:48:03;;;;;;;3.40;1.97;;;5.40;99.90;;;;;;4960787;28;20192;-78
2021/12/02 09:50:35;;;;;;;3.57;1.90;;;5.40;99.90;;;;;;4960668;28;20652;-78
2021/12/02 09:53:10;;;;;;;2.70;2.23;;;5.40;99.90;;;;;;4960890;28;20333;-78
2021/12/02 09:58:10;;;;;;;4.63;2.30;;;5.30;99.90;;;;;;4978636;28;20161;-78
2021/12/02 10:00:43;;;;;;;2.10;1.93;;;5.20;99.90;;;;;;4960753;28;20181;-78
2021/12/02 10:05:56;;;;;;;2.63;1.63;;;5.30;99.90;;;;;;4977730;28;20260;-78
2021/12/02 10:08:29;;;;;;;2.37;1.80;;;5.30;99.90;;;;;;4960671;28;20247;-78
2021/12/02 10:11:07;;;;;;;1.73;1.30;;;5.50;99.90;;;;;;4960410;28;20622;-78
2021/12/02 10:13:57;;;;;;;3.13;1.20;;;5.60;99.90;;;;;;4960109;28;20182;-78
2021/12/02 10:16:33;;;;;;;1.60;1.50;;;5.60;99.90;;;;;;4959982;28;20233;-78
2021/12/02 10:24:09;;;;;;;2.23;1.30;;;5.70;99.90;;;;;;4977561;28;20165;-78
2021/12/02 10:26:49;;;;;;;1.77;1.40;;;5.70;99.90;;;;;;4974840;28;20232;-78
2021/12/02 10:29:25;;;;;;;1.30;1.20;;;5.80;99.90;;;;;;4960089;28;20164;-78
2021/12/02 10:32:09;;;;;;;1.50;1.40;;;5.80;99.90;;;;;;4959804;28;20275;-78
2021/12/02 10:34:56;;;;;;;3.13;1.63;;;5.80;99.90;;;;;;4975964;28;20648;-78
2021/12/02 10:37:25;;;;;;;1.83;1.73;;;5.80;99.90;;;;;;4959710;28;20183;-78
2021/12/02 10:39:55;;;;;;;1.60;1.50;;;5.70;99.90;;;;;;4960255;28;20177;-78
2021/12/02 10:42:23;;;;;;;2.60;2.40;;;5.80;99.90;;;;;;4976014;28;20181;-78
2021/12/02 10:44:48;;;;;;;3.73;2.00;;;5.80;99.90;;;;;;4959466;28;20200;-79
2021/12/02 10:47:16;;;;;;;1.60;1.50;;;5.80;99.90;;;;;;4959993;28;20256;-78
2021/12/02 10:49:50;;;;;;;1.63;1.50;;;5.80;99.90;;;;;;4959311;28;20564;-78
2021/12/02 10:52:28;;;;;;;2.13;2.00;;;5.90;99.90;;;;;;4959391;28;20291;-78
2021/12/02 10:55:03;;;;;;;1.70;1.60;;;5.90;99.90;;;;;;4959647;28;20207;-78
2021/12/02 10:57:31;;;;;;;2.00;1.57;;;6.00;99.90;;;;;;4959303;28;20192;-78
2021/12/02 11:00:03;;;;;;;1.37;1.27;;;6.20;99.90;;;;;;4959288;28;20550;-78
2021/12/02 11:02:35;;;;;;;1.70;1.60;;;6.20;99.90;;;;;;4959930;28;20204;-78
2021/12/02 11:05:23;;;;;;;2.57;1.40;;;6.20;99.90;;;;;;4959752;28;20220;-78
2021/12/02 11:07:57;;;;;;;1.53;1.43;;;6.30;99.90;;;;;;4959723;28;20165;-78
2021/12/02 11:10:25;;;;;;;1.60;1.50;;;6.10;99.90;;;;;;4960018;28;20176;-78
2021/12/02 11:12:53;;;;;;;1.80;1.70;;;6.20;99.90;;;;;;4959598;28;20185;-78
2021/12/02 11:15:25;;;;;;;2.10;2.00;;;6.20;99.90;;;;;;4960175;28;20208;-78
2021/12/02 11:17:53;;;;;;;2.40;2.00;;;6.30;99.90;;;;;;4959621;28;20226;-79
2021/12/02 11:20:22;;;;;;;1.80;1.70;;;6.50;99.90;;;;;;4960031;28;20177;-78
2021/12/02 11:23:04;;;;;;;2.90;1.90;;;6.40;99.90;;;;;;4959496;28;20181;-78
2021/12/02 11:25:33;;;;;;;2.07;1.50;;;6.50;99.90;;;;;;4959451;28;20201;-78
2021/12/02 11:28:04;;;;;;;5.13;4.63;;;6.20;99.90;;;;;;4959346;28;20558;-78
2021/12/02 11:30:31;;;;;;;5.27;4.60;;;6.20;99.90;;;;;;4959793;28;20175;-78
2021/12/02 11:33:02;;;;;;;3.30;3.10;;;6.00;99.90;;;;;;4959372;28;20660;-78
2021/12/02 11:35:34;;;;;;;2.50;2.30;;;5.90;99.90;;;;;;4959061;28;20203;-78
2021/12/02 11:38:03;;;;;;;2.80;2.60;;;6.00;99.90;;;;;;4959168;28;20232;-78
2021/12/02 11:40:41;;;;;;;3.80;3.50;;;6.00;99.90;;;;;;4959189;28;20228;-78
2021/12/02 11:43:09;;;;;;;2.60;2.40;;;6.10;99.90;;;;;;4959449;28;20173;-79
2021/12/02 11:45:43;;;;;;;3.07;2.77;;;6.20;99.90;;;;;;4958712;28;20209;-80
2021/12/02 11:48:10;;;;;;;7.40;6.33;;;6.30;99.90;;;;;;4975785;28;20171;-78
2021/12/02 11:50:36;;;;;;;8.47;7.10;;;6.40;99.90;;;;;;4959066;28;20280;-78
2021/12/02 11:53:02;;;;;;;3.40;3.10;;;6.40;99.90;;;;;;4958995;28;20232;-80
2021/12/02 11:55:40;;;;;;;4.67;4.27;;;6.30;99.90;;;;;;4958661;28;20204;-79
2021/12/02 11:58:07;;;;;;;4.83;3.50;;;6.30;99.90;;;;;;4958442;28;20175;-78
2021/12/02 12:00:35;;;;;;;5.23;3.93;;;6.20;99.90;;;;;;4976362;28;20177;-78
2021/12/02 12:03:09;;;;;;;6.57;5.03;;;6.00;99.90;;;;;;4958907;28;20201;-78
2021/12/02 12:05:52;;;;;;;5.87;4.37;;;6.10;99.90;;;;;;4958683;28;20316;-78
2021/12/02 12:08:36;;;;;;;4.00;3.70;;;6.00;99.90;;;;;;4959180;28;20219;-78
2021/12/02 12:11:23;;;;;;;3.03;2.57;;;6.10;99.90;;;;;;4974741;28;20212;-78
2021/12/02 12:14:11;;;;;;;2.70;2.33;;;6.00;99.90;;;;;;4958915;28;20187;-80
2021/12/02 12:16:43;;;;;;;3.80;3.43;;;6.00;99.90;;;;;;4974201;28;20223;-80
2021/12/02 12:19:16;;;;;;;3.50;2.93;;;6.10;99.90;;;;;;4958891;28;20233;-81
2021/12/02 12:21:47;;;;;;;3.50;3.20;;;6.10;99.90;;;;;;4976781;28;20191;-80
2021/12/02 12:24:15;;;;;;;4.67;2.63;;;6.20;99.90;;;;;;4960594;28;20177;-80
2021/12/02 12:26:45;;;;;;;4.47;2.63;;;6.30;99.90;;;;;;4960052;28;20212;-80
2021/12/02 12:29:12;;;;;;;85.17;29.30;;;6.30;99.90;;;;;;4959793;28;20169;-69
2021/12/02 12:34:35;;;;;;;12.90;6.57;;;5.90;99.90;;;;;;4974872;28;20180;-72
2021/12/02 12:37:47;;;;;;;8.07;5.00;;;5.70;99.90;;;;;;4974550;28;20169;-69
2021/12/02 12:40:15;;;;;;;10.60;5.07;;;5.50;99.90;;;;;;4974747;28;20189;-69
2021/12/02 12:42:50;;;;;;;12.07;6.27;;;5.40;99.90;;;;;;4957886;28;20193;-69
2021/12/02 12:45:26;;;;;;;176.17;62.13;;;5.30;99.90;;;;;;4974322;28;20694;-69
2021/12/02 12:48:01;;;;;;;5.23;3.33;;;7.10;99.90;;;;;;4957411;28;20239;-69
2021/12/02 12:50:29;;;;;;;4.53;2.90;;;6.50;99.90;;;;;;4956783;28;20169;-69
2021/12/02 12:53:18;;;;;;;6.37;3.23;;;5.80;99.90;;;;;;4974373;28;20192;-69
2021/12/02 12:55:52;;;;;;;4.73;2.67;;;5.20;99.90;;;;;;4974712;28;20197;-68
2021/12/02 12:58:31;;;;;;;5.07;3.80;;;4.90;99.90;;;;;;4973655;28;20276;-68
2021/12/02 13:00:58;;;;;;;4.67;3.80;;;4.60;99.90;;;;;;4958198;28;20172;-69
2021/12/02 13:03:30;;;;;;;3.87;3.50;;;4.50;99.90;;;;;;4974814;28;20192;-80
2021/12/02 13:06:17;;;;;;;4.37;3.37;;;4.60;99.90;;;;;;4974756;28;20753;-80
2021/12/02 13:08:49;;;;;;;5.20;3.30;;;4.80;99.90;;;;;;4960087;28;20172;-81
2021/12/02 13:11:18;;;;;;;2.97;2.73;;;5.00;99.90;;;;;;4959619;28;20578;-81
2021/12/02 13:13:48;;;;;;;4.97;3.07;;;5.10;99.90;;;;;;4959193;28;20275;-81
2021/12/02 13:16:18;;;;;;;6.13;3.07;;;5.10;99.90;;;;;;4958706;28;20192;-80
2021/12/02 13:18:49;;;;;;;3.50;2.63;;;5.20;99.90;;;;;;4975412;28;20534;-80
2021/12/02 13:21:27;;;;;;;2.53;2.27;;;5.30;99.90;;;;;;4959290;28;20180;-81
2021/12/02 13:24:12;;;;;;;3.57;2.47;;;5.30;99.90;;;;;;4975635;28;20196;-81